createdAt,value
2019-02-06T00:02:10.547Z,14.20
2019-02-06T00:04:42.162Z,17.07
2019-02-06T00:07:12.764Z,17.13
2019-02-06T00:09:43.072Z,20.00
2019-02-06T00:12:13.452Z,19.03
2019-02-06T00:14:44.099Z,17.83
2019-02-06T00:17:14.451Z,17.33
2019-02-06T00:19:44.785Z,20.13
2019-02-06T00:22:15.199Z,24.33
2019-02-06T00:24:46.394Z,20.43
2019-02-06T00:27:16.592Z,28.07
2019-02-06T00:29:46.906Z,19.93
2019-02-06T00:32:17.040Z,14.07
2019-02-06T00:34:47.318Z,17.70
2019-02-06T00:37:17.578Z,15.13
2019-02-06T00:39:48.586Z,12.33
2019-02-06T00:42:19.111Z,15.73
2019-02-06T00:44:49.412Z,10.77
2019-02-06T00:47:19.724Z,11.00
2019-02-06T00:49:50.035Z,17.67
2019-02-06T00:52:21.147Z,17.13
2019-02-06T00:54:51.818Z,14.03
2019-02-06T00:57:22.158Z,13.13
2019-02-06T00:59:52.528Z,11.27
2019-02-06T01:02:22.853Z,13.00
2019-02-06T01:04:53.102Z,12.30
2019-02-06T01:07:23.253Z,10.63
2019-02-06T01:09:54.999Z,11.37
2019-02-06T01:12:25.648Z,12.83
2019-02-06T01:14:56.126Z,14.33
2019-02-06T01:17:26.704Z,13.27
2019-02-06T01:19:57.450Z,15.17
2019-02-06T01:22:27.808Z,12.83
2019-02-06T01:24:58.390Z,14.27
2019-02-06T01:27:28.703Z,11.53
2019-02-06T01:29:58.976Z,11.03
2019-02-06T01:32:29.331Z,10.17
2019-02-06T01:34:59.720Z,11.43
2019-02-06T01:37:29.972Z,11.60
2019-02-06T01:40:00.343Z,10.50
2019-02-06T01:42:30.667Z,14.63
2019-02-06T01:45:00.898Z,9.63
2019-02-06T01:47:31.203Z,11.80
2019-02-06T01:50:01.458Z,9.10
2019-02-06T01:52:33.715Z,9.70
2019-02-06T01:55:04.282Z,7.67
2019-02-06T01:57:34.541Z,9.17
2019-02-06T02:00:12.826Z,11.83
2019-02-06T02:02:43.190Z,9.50
2019-02-06T02:05:16.061Z,7.67
2019-02-06T02:07:46.566Z,7.77
2019-02-06T02:10:16.767Z,8.57
2019-02-06T02:12:47.326Z,8.63
2019-02-06T02:15:19.021Z,9.50
2019-02-06T02:17:49.364Z,8.97
2019-02-06T02:20:21.495Z,9.70
2019-02-06T02:22:52.368Z,9.03
2019-02-06T02:25:22.694Z,9.53
2019-02-06T02:27:53.099Z,8.97
2019-02-06T02:30:30.510Z,9.60
2019-02-06T02:33:00.838Z,9.07
2019-02-06T02:35:31.295Z,10.57
2019-02-06T02:38:01.716Z,10.03
2019-02-06T02:40:32.048Z,10.43
2019-02-06T02:43:02.508Z,9.90
2019-02-06T02:45:33.103Z,10.23
2019-02-06T02:48:03.407Z,13.90
2019-02-06T02:50:33.625Z,14.53
2019-02-06T02:53:03.954Z,11.27
2019-02-06T02:55:34.170Z,10.70
2019-02-06T02:58:04.583Z,13.03
2019-02-06T03:00:52.387Z,14.93
2019-02-06T03:03:44.862Z,26.00
2019-02-06T03:06:27.262Z,12.23
2019-02-06T03:08:47.523Z,13.37
2019-02-06T03:11:17.750Z,18.03
2019-02-06T03:13:48.060Z,15.60
2019-02-06T03:16:18.311Z,14.43
2019-02-06T03:18:49.015Z,14.13
2019-02-06T03:21:19.292Z,15.90
2019-02-06T03:23:49.462Z,17.43
2019-02-06T03:26:19.752Z,18.03
2019-02-06T03:28:50.073Z,16.97
2019-02-06T03:31:20.356Z,20.30
2019-02-06T03:33:50.794Z,18.97
2019-02-06T03:36:21.115Z,19.70
2019-02-06T03:38:51.365Z,23.87
2019-02-06T03:41:21.690Z,22.67
2019-02-06T03:43:51.772Z,18.93
2019-02-06T03:46:22.447Z,20.40
2019-02-06T03:48:52.684Z,17.43
2019-02-06T03:51:24.022Z,21.40
2019-02-06T03:53:54.373Z,19.80
2019-02-06T03:56:24.603Z,17.27
2019-02-06T03:58:54.884Z,20.83
2019-02-06T04:01:25.525Z,16.57
2019-02-06T04:03:55.813Z,22.63
2019-02-06T04:06:26.108Z,19.63
2019-02-06T04:08:56.448Z,17.47
2019-02-06T04:11:26.715Z,13.20
2019-02-06T04:13:56.990Z,15.87
2019-02-06T04:16:27.435Z,18.20
2019-02-06T04:18:57.667Z,22.37
2019-02-06T04:21:28.044Z,15.80
2019-02-06T04:23:58.270Z,18.57
2019-02-06T04:26:28.550Z,21.00
2019-02-06T04:28:58.951Z,31.57
2019-02-06T04:31:30.192Z,36.43
2019-02-06T04:34:00.331Z,28.63
2019-02-06T04:36:30.507Z,27.17
2019-02-06T04:39:00.648Z,25.70
2019-02-06T04:41:32.448Z,27.77
2019-02-06T04:44:03.769Z,27.93
2019-02-06T04:46:34.399Z,28.33
2019-02-06T04:49:04.662Z,23.93
2019-02-06T04:51:35.920Z,21.50
2019-02-06T04:54:06.131Z,20.80
2019-02-06T04:56:36.511Z,22.83
2019-02-06T04:59:06.771Z,20.17
2019-02-06T05:01:37.067Z,16.93
2019-02-06T05:04:07.272Z,23.30
2019-02-06T05:06:37.541Z,20.83
2019-02-06T05:09:09.271Z,20.80
2019-02-06T05:11:40.273Z,22.50
2019-02-06T05:14:10.448Z,17.00
2019-02-06T05:16:40.618Z,15.23
2019-02-06T05:19:10.741Z,17.23
2019-02-06T05:21:40.938Z,14.03
2019-02-06T05:24:11.448Z,16.23
2019-02-06T05:26:41.630Z,18.87
2019-02-06T05:29:12.116Z,14.23
2019-02-06T05:31:42.286Z,10.53
2019-02-06T05:34:12.557Z,12.97
2019-02-06T05:36:42.739Z,14.77
2019-02-06T05:39:13.006Z,12.23
2019-02-06T05:41:43.275Z,13.13
2019-02-06T05:44:13.508Z,11.87
2019-02-06T05:46:43.709Z,15.30
2019-02-06T05:49:13.892Z,16.23
2019-02-06T05:51:44.188Z,12.57
2019-02-06T05:54:14.463Z,12.00
2019-02-06T05:56:44.717Z,14.77
2019-02-06T05:59:14.963Z,10.20
2019-02-06T06:01:45.190Z,7.67
2019-02-06T06:04:15.390Z,13.37
2019-02-06T06:06:45.654Z,13.20
2019-02-06T06:09:17.534Z,13.10
2019-02-06T06:11:48.004Z,9.20
2019-02-06T06:14:18.413Z,12.00
2019-02-06T06:16:48.569Z,11.00
2019-02-06T06:19:18.924Z,9.90
2019-02-06T06:21:49.101Z,15.40
2019-02-06T06:24:21.883Z,15.17
2019-02-06T06:26:52.436Z,12.47
2019-02-06T06:29:22.985Z,13.23
2019-02-06T06:31:53.207Z,11.67
2019-02-06T06:34:23.587Z,14.23
2019-02-06T06:36:56.810Z,14.37
2019-02-06T06:39:25.926Z,15.00
2019-02-06T06:41:56.339Z,13.40
2019-02-06T06:44:26.643Z,11.77
2019-02-06T06:46:57.057Z,15.00
2019-02-06T06:49:27.392Z,13.83
2019-02-06T06:51:57.961Z,17.27
2019-02-06T06:54:28.086Z,13.27
2019-02-06T06:56:58.349Z,12.37
2019-02-06T06:59:28.551Z,14.03
2019-02-06T07:01:59.095Z,15.83
2019-02-06T07:04:29.273Z,17.27
2019-02-06T07:06:59.847Z,12.87
2019-02-06T07:09:30.200Z,8.93
2019-02-06T07:12:00.580Z,10.30
2019-02-06T07:14:30.891Z,11.33
2019-02-06T07:17:01.089Z,11.50
2019-02-06T07:19:31.411Z,15.00
2019-02-06T07:22:01.734Z,10.87
2019-02-06T07:24:31.950Z,13.57
2019-02-06T07:27:02.104Z,13.40
2019-02-06T07:29:32.319Z,14.50
2019-02-06T07:32:02.445Z,12.20
2019-02-06T07:34:33.001Z,13.57
2019-02-06T07:37:03.179Z,12.90
2019-02-06T07:39:33.419Z,12.20
2019-02-06T07:42:03.979Z,15.70
2019-02-06T07:44:34.195Z,12.60
2019-02-06T07:47:04.411Z,13.43
2019-02-06T07:49:34.927Z,13.77
2019-02-06T07:52:05.175Z,15.73
2019-02-06T07:54:35.371Z,16.13
2019-02-06T07:57:05.674Z,16.73
2019-02-06T07:59:36.027Z,15.43
2019-02-06T08:02:06.271Z,15.23
2019-02-06T08:04:36.528Z,16.50
2019-02-06T08:07:06.805Z,15.57
2019-02-06T08:09:37.094Z,15.20
2019-02-06T08:12:07.273Z,13.87
2019-02-06T08:14:37.465Z,15.00
2019-02-06T08:17:08.202Z,11.77
2019-02-06T08:19:38.416Z,10.93
2019-02-06T08:22:08.500Z,12.60
2019-02-06T08:24:38.763Z,15.73
2019-02-06T08:27:09.039Z,13.30
2019-02-06T08:29:39.274Z,11.70
2019-02-06T08:32:09.714Z,11.83
2019-02-06T08:34:40.603Z,13.03
2019-02-06T08:37:10.823Z,10.43
2019-02-06T08:39:41.003Z,9.47
2019-02-06T08:42:11.267Z,12.27
2019-02-06T08:44:41.594Z,9.60
2019-02-06T08:47:12.855Z,9.37
2019-02-06T08:49:43.069Z,9.97
2019-02-06T08:52:13.185Z,9.33
2019-02-06T08:54:43.405Z,10.63
2019-02-06T08:57:13.738Z,10.87
2019-02-06T08:59:44.464Z,12.50
2019-02-06T09:02:14.633Z,12.03
2019-02-06T09:04:55.277Z,10.20
2019-02-06T09:07:16.864Z,8.90
2019-02-06T09:09:47.071Z,11.20
2019-02-06T09:12:17.333Z,11.13
2019-02-06T09:14:47.541Z,12.07
2019-02-06T09:17:17.814Z,13.53
2019-02-06T09:19:47.986Z,13.50
2019-02-06T09:22:18.252Z,9.60
2019-02-06T09:24:48.507Z,14.17
2019-02-06T09:27:19.018Z,11.40
2019-02-06T09:29:49.406Z,13.10
2019-02-06T09:32:19.579Z,11.53
2019-02-06T09:34:50.144Z,10.30
2019-02-06T09:37:20.386Z,8.97
2019-02-06T09:39:50.608Z,11.53
2019-02-06T09:42:20.974Z,9.77
2019-02-06T09:44:51.284Z,10.13
2019-02-06T09:47:21.534Z,13.60
2019-02-06T09:49:51.809Z,13.37
2019-02-06T09:52:22.122Z,11.13
2019-02-06T09:54:53.695Z,12.10
2019-02-06T09:57:23.842Z,15.83
2019-02-06T09:59:54.156Z,13.67
2019-02-06T10:02:24.310Z,17.17
2019-02-06T10:04:54.511Z,16.67
2019-02-06T10:07:25.160Z,13.30
2019-02-06T10:09:57.964Z,15.10
2019-02-06T10:12:27.369Z,11.60
2019-02-06T10:14:57.688Z,17.60
2019-02-06T10:17:27.834Z,12.37
2019-02-06T10:19:58.143Z,15.00
2019-02-06T10:22:28.389Z,12.13
2019-02-06T10:24:58.809Z,9.90
2019-02-06T10:27:29.054Z,13.80
2019-02-06T10:30:00.533Z,12.53
2019-02-06T10:32:31.191Z,15.30
2019-02-06T10:35:01.375Z,15.57
2019-02-06T10:37:31.781Z,14.17
2019-02-06T10:40:02.069Z,17.47
2019-02-06T10:42:33.203Z,13.73
2019-02-06T10:45:03.594Z,10.33
2019-02-06T10:47:33.886Z,13.60
2019-02-06T10:50:04.655Z,17.83
2019-02-06T10:52:35.267Z,18.27
2019-02-06T10:55:06.246Z,15.67
2019-02-06T10:57:36.509Z,15.67
2019-02-06T11:00:12.827Z,12.00
2019-02-06T11:02:43.506Z,9.63
2019-02-06T11:05:14.231Z,11.87
2019-02-06T11:07:46.210Z,11.50
2019-02-06T11:10:16.603Z,8.47
2019-02-06T11:12:47.267Z,11.80
2019-02-06T11:15:17.712Z,13.03
2019-02-06T11:17:47.987Z,10.20
2019-02-06T11:20:18.846Z,9.43
2019-02-06T11:22:49.260Z,13.40
2019-02-06T11:25:19.505Z,11.57
2019-02-06T11:27:49.691Z,12.13
2019-02-06T11:30:22.851Z,10.97
2019-02-06T11:32:53.320Z,9.57
2019-02-06T11:35:23.461Z,7.97
2019-02-06T11:37:53.704Z,10.90
2019-02-06T11:40:24.967Z,10.87
2019-02-06T11:42:55.288Z,11.30
2019-02-06T11:45:28.072Z,12.80
2019-02-06T11:47:58.366Z,14.63
2019-02-06T11:50:47.552Z,13.60
2019-02-06T11:53:20.222Z,13.77
2019-02-06T11:55:50.832Z,11.80
2019-02-06T11:58:20.918Z,14.27
2019-02-06T12:01:00.204Z,11.70
2019-02-06T12:03:30.415Z,13.30
2019-02-06T12:06:00.730Z,12.80
2019-02-06T12:08:31.382Z,11.13
2019-02-06T12:11:01.646Z,11.37
2019-02-06T12:13:32.270Z,12.83
2019-02-06T12:16:02.724Z,11.17
2019-02-06T12:18:33.997Z,15.77
2019-02-06T12:21:04.447Z,11.27
2019-02-06T12:23:34.650Z,10.57
2019-02-06T12:26:05.663Z,10.13
2019-02-06T12:28:35.787Z,13.63
2019-02-06T12:31:06.031Z,13.07
2019-02-06T12:33:36.825Z,12.77
2019-02-06T12:36:07.090Z,8.90
2019-02-06T12:38:37.289Z,9.43
2019-02-06T12:41:07.876Z,10.33
2019-02-06T12:43:38.104Z,9.57
2019-02-06T12:46:08.251Z,11.73
2019-02-06T12:48:38.447Z,10.47
2019-02-06T12:51:08.705Z,10.90
2019-02-06T12:53:39.195Z,10.53
2019-02-06T12:56:09.435Z,17.60
2019-02-06T12:58:39.546Z,11.53
2019-02-06T13:01:09.896Z,11.07
2019-02-06T13:03:40.114Z,9.47
2019-02-06T13:06:10.640Z,10.73
2019-02-06T13:08:41.841Z,9.97
2019-02-06T13:11:12.012Z,10.10
2019-02-06T13:13:45.131Z,13.27
2019-02-06T13:16:14.218Z,12.37
2019-02-06T13:18:44.465Z,10.70
2019-02-06T13:21:14.845Z,11.33
2019-02-06T13:23:45.205Z,12.37
2019-02-06T13:26:15.434Z,10.37
2019-02-06T13:28:45.570Z,11.43
2019-02-06T13:31:16.761Z,18.17
2019-02-06T13:33:46.898Z,9.70
2019-02-06T13:36:17.590Z,10.93
2019-02-06T13:38:47.759Z,14.03
2019-02-06T13:41:17.941Z,12.00
2019-02-06T13:43:48.090Z,9.70
2019-02-06T13:46:18.294Z,9.67
2019-02-06T13:48:48.527Z,8.83
2019-02-06T13:51:19.706Z,11.80
2019-02-06T13:53:50.026Z,12.10
2019-02-06T13:56:20.248Z,10.47
2019-02-06T13:58:50.340Z,10.03
2019-02-06T14:01:25.773Z,11.53
2019-02-06T14:03:52.322Z,11.33
2019-02-06T14:06:22.525Z,12.40
2019-02-06T14:08:52.689Z,14.37
2019-02-06T14:11:22.857Z,16.57
2019-02-06T14:13:53.096Z,15.40
2019-02-06T14:16:23.262Z,12.57
2019-02-06T14:18:53.619Z,14.83
2019-02-06T14:21:23.891Z,14.57
2019-02-06T14:24:22.778Z,13.83
2019-02-06T14:27:09.762Z,12.40
2019-02-06T14:30:36.088Z,10.73
2019-02-06T14:33:22.370Z,11.00
2019-02-06T14:36:34.751Z,9.83
2019-02-06T14:39:38.497Z,7.33
2019-02-06T14:42:51.441Z,8.80
2019-02-06T14:46:12.188Z,10.03
2019-02-06T14:48:53.740Z,7.00
2019-02-06T14:52:07.880Z,6.57
2019-02-06T14:54:58.194Z,7.53
2019-02-06T14:58:15.825Z,11.23
2019-02-06T15:01:03.355Z,9.37
2019-02-06T15:03:57.439Z,11.83
2019-02-06T15:06:48.358Z,6.77
2019-02-06T15:09:54.047Z,9.63
2019-02-06T15:13:20.301Z,11.17
2019-02-06T15:16:37.334Z,10.40
2019-02-06T15:19:36.983Z,7.63
2019-02-06T15:23:03.106Z,9.07
2019-02-06T15:26:15.477Z,9.20
2019-02-06T15:29:47.863Z,8.47
2019-02-06T15:32:56.870Z,8.47
2019-02-06T15:36:06.571Z,8.50
2019-02-06T15:39:17.305Z,12.77
2019-02-06T15:42:28.919Z,13.33
2019-02-06T15:45:42.612Z,18.00
2019-02-06T15:48:27.534Z,19.37
2019-02-06T15:51:27.519Z,25.87
2019-02-06T15:54:56.987Z,23.43
2019-02-06T15:57:52.149Z,48.13
2019-02-06T16:01:09.262Z,20.53
2019-02-06T16:04:41.205Z,14.73
2019-02-06T16:08:07.284Z,12.00
2019-02-06T16:11:04.330Z,10.73
2019-02-06T16:13:48.693Z,10.37
2019-02-06T16:16:53.584Z,10.23
2019-02-06T16:20:05.014Z,6.93
2019-02-06T16:23:09.360Z,6.67
2019-02-06T16:26:17.770Z,7.40
2019-02-06T16:29:15.937Z,8.40
2019-02-06T16:32:03.829Z,9.60
2019-02-06T16:35:21.105Z,5.93
2019-02-06T16:38:31.785Z,8.37
2019-02-06T16:41:18.847Z,8.23
2019-02-06T16:44:41.801Z,6.03
2019-02-06T16:48:08.608Z,6.30
2019-02-06T16:51:27.416Z,6.93
2019-02-06T16:54:22.500Z,8.50
2019-02-06T16:57:21.496Z,7.77
2019-02-06T17:00:33.011Z,6.73
2019-02-06T17:03:36.631Z,6.07
2019-02-06T17:06:47.691Z,11.33
2019-02-06T17:10:00.578Z,5.30
2019-02-06T17:13:14.588Z,7.03
2019-02-06T17:16:14.781Z,8.70
2019-02-06T17:19:13.357Z,5.23
2019-02-06T17:22:29.468Z,8.60
2019-02-06T17:25:36.691Z,4.57
2019-02-06T17:28:32.378Z,4.70
2019-02-06T17:31:51.512Z,4.80
2019-02-06T17:35:13.954Z,6.57
2019-02-06T17:38:19.481Z,6.93
2019-02-06T17:41:17.332Z,6.47
2019-02-06T17:44:31.918Z,7.43
2019-02-06T17:47:20.327Z,4.50
2019-02-06T17:50:22.607Z,11.77
2019-02-06T17:53:17.076Z,5.60
2019-02-06T17:55:47.869Z,6.43
2019-02-06T17:58:18.161Z,7.20
2019-02-06T18:01:20.951Z,5.87
2019-02-06T18:03:57.916Z,7.00
2019-02-06T18:06:28.281Z,5.27
2019-02-06T18:09:00.796Z,6.87
2019-02-06T18:11:34.501Z,9.93
2019-02-06T18:14:04.881Z,14.57
2019-02-06T18:16:35.291Z,12.50
2019-02-06T18:19:05.774Z,9.90
2019-02-06T18:21:35.978Z,9.37
2019-02-06T18:24:07.238Z,9.87
2019-02-06T18:26:42.908Z,11.60
2019-02-06T18:29:13.340Z,8.10
2019-02-06T18:31:43.793Z,11.30
2019-02-06T18:34:14.092Z,9.33
2019-02-06T18:36:44.353Z,10.93
2019-02-06T18:39:15.561Z,11.40
2019-02-06T18:41:46.253Z,11.40
2019-02-06T18:44:16.735Z,12.87
2019-02-06T18:46:49.374Z,15.33
2019-02-06T18:49:19.775Z,8.57
2019-02-06T18:51:50.088Z,9.70
2019-02-06T18:54:20.874Z,13.80
2019-02-06T18:56:51.185Z,16.07
2019-02-06T18:59:21.529Z,17.30
2019-02-06T19:01:51.865Z,19.13
2019-02-06T19:04:22.338Z,16.47
2019-02-06T19:06:53.170Z,17.97
2019-02-06T19:09:23.531Z,22.07
2019-02-06T19:11:54.092Z,14.53
2019-02-06T19:14:24.388Z,13.83
2019-02-06T19:16:55.100Z,18.63
2019-02-06T19:19:25.916Z,19.00
2019-02-06T19:21:56.323Z,15.13
2019-02-06T19:24:26.636Z,13.10
2019-02-06T19:26:57.129Z,10.97
2019-02-06T19:29:27.651Z,12.57
2019-02-06T19:31:58.008Z,10.30
2019-02-06T19:34:28.260Z,9.27
2019-02-06T19:36:58.714Z,16.13
2019-02-06T19:39:29.373Z,14.07
2019-02-06T19:41:59.838Z,15.77
2019-02-06T19:44:30.511Z,16.70
2019-02-06T19:47:00.943Z,14.03
2019-02-06T19:49:31.317Z,15.10
2019-02-06T19:52:01.578Z,35.53
2019-02-06T19:54:32.980Z,13.47
2019-02-06T19:57:03.321Z,12.03
2019-02-06T19:59:33.653Z,11.37
2019-02-06T20:02:03.992Z,11.83
2019-02-06T20:04:34.303Z,11.00
2019-02-06T20:07:04.655Z,13.60
2019-02-06T20:09:34.973Z,12.17
2019-02-06T20:12:05.176Z,12.53
2019-02-06T20:14:36.574Z,15.30
2019-02-06T20:17:07.191Z,15.77
2019-02-06T20:19:37.669Z,17.07
2019-02-06T20:22:07.966Z,18.73
2019-02-06T20:24:38.244Z,17.57
2019-02-06T20:27:08.472Z,16.53
2019-02-06T20:29:39.027Z,11.10
2019-02-06T20:32:09.558Z,12.17
2019-02-06T20:34:39.890Z,13.07
2019-02-06T20:37:10.175Z,19.43
2019-02-06T20:39:40.547Z,10.43
2019-02-06T20:42:10.852Z,15.77
2019-02-06T20:44:41.236Z,14.50
2019-02-06T20:47:11.887Z,15.67
2019-02-06T20:49:42.207Z,15.50
2019-02-06T20:52:12.798Z,15.03
2019-02-06T20:54:43.090Z,11.40
2019-02-06T20:57:15.673Z,12.37
2019-02-06T20:59:45.753Z,11.27
2019-02-06T21:02:16.814Z,14.67
2019-02-06T21:04:47.189Z,9.47
2019-02-06T21:07:17.562Z,10.90
2019-02-06T21:09:50.772Z,12.10
2019-02-06T21:12:20.373Z,9.10
2019-02-06T21:14:50.735Z,10.37
2019-02-06T21:17:21.354Z,9.30
2019-02-06T21:19:51.695Z,11.50
2019-02-06T21:22:23.713Z,11.00
2019-02-06T21:24:54.037Z,10.60
2019-02-06T21:27:24.457Z,14.13
2019-02-06T21:29:55.201Z,12.50
2019-02-06T21:32:26.816Z,11.67
2019-02-06T21:34:57.124Z,13.43
2019-02-06T21:37:27.316Z,12.73
2019-02-06T21:39:57.940Z,11.83
2019-02-06T21:42:28.331Z,10.87
2019-02-06T21:44:58.699Z,13.23
2019-02-06T21:47:29.114Z,15.30
2019-02-06T21:49:59.558Z,11.73
2019-02-06T21:52:29.961Z,12.47
2019-02-06T21:55:00.317Z,10.13
2019-02-06T21:57:30.966Z,16.40
2019-02-06T22:00:01.653Z,12.50
2019-02-06T22:02:33.118Z,20.33
2019-02-06T22:05:03.620Z,11.90
2019-02-06T22:07:34.092Z,14.43
2019-02-06T22:10:05.503Z,10.17
2019-02-06T22:12:35.869Z,12.97
2019-02-06T22:15:09.307Z,11.50
2019-02-06T22:17:39.607Z,14.10
2019-02-06T22:20:10.755Z,14.40
2019-02-06T22:22:42.982Z,13.07
2019-02-06T22:25:13.587Z,15.23
2019-02-06T22:27:44.489Z,18.67
2019-02-06T22:30:17.764Z,14.17
2019-02-06T22:32:48.315Z,11.43
2019-02-06T22:35:18.895Z,14.37
2019-02-06T22:37:49.386Z,14.20
2019-02-06T22:40:21.212Z,17.20
2019-02-06T22:42:51.641Z,16.27
2019-02-06T22:45:24.151Z,16.80
2019-02-06T22:47:54.846Z,17.83
2019-02-06T22:50:27.103Z,16.27
2019-02-06T22:52:57.533Z,15.40
2019-02-06T22:55:27.961Z,18.37
2019-02-06T22:57:59.109Z,18.30
2019-02-06T23:01:25.382Z,18.13
2019-02-06T23:03:58.002Z,15.93
2019-02-06T23:06:28.784Z,13.97
2019-02-06T23:08:59.146Z,17.87
2019-02-06T23:11:29.728Z,16.50
2019-02-06T23:14:00.092Z,13.93
2019-02-06T23:16:31.515Z,19.27
2019-02-06T23:19:02.199Z,17.30
2019-02-06T23:21:32.542Z,19.20
2019-02-06T23:24:02.823Z,16.57
2019-02-06T23:26:33.375Z,18.33
2019-02-06T23:29:03.751Z,16.50
2019-02-06T23:31:34.373Z,16.03
2019-02-06T23:34:04.809Z,16.53
2019-02-06T23:36:35.297Z,16.00
2019-02-06T23:39:16.887Z,18.27
2019-02-06T23:41:47.306Z,16.33
2019-02-06T23:44:28.652Z,20.30
2019-02-06T23:46:51.011Z,15.60
2019-02-06T23:49:21.436Z,17.03
2019-02-06T23:51:51.841Z,17.20
2019-02-06T23:54:22.160Z,18.07
2019-02-06T23:56:52.856Z,17.23
2019-02-06T23:59:24.064Z,17.53
